createdAt,value
2018-11-11T00:00:12.226Z,88.36
2018-11-11T00:02:40.754Z,88.25
2018-11-11T00:05:10.355Z,87.97
2018-11-11T00:07:38.861Z,88.21
2018-11-11T00:10:07.526Z,88.20
2018-11-11T00:12:36.201Z,88.30
2018-11-11T00:15:05.346Z,88.15
2018-11-11T00:17:33.876Z,88.02
2018-11-11T00:20:02.861Z,88.05
2018-11-11T00:22:31.519Z,88.09
2018-11-11T00:24:59.973Z,87.94
2018-11-11T00:27:28.897Z,88.01
2018-11-11T00:29:57.372Z,87.72
2018-11-11T00:32:25.850Z,87.89
2018-11-11T00:34:54.513Z,87.99
2018-11-11T00:37:23.022Z,87.85
2018-11-11T00:39:51.817Z,87.68
2018-11-11T00:42:20.954Z,87.90
2018-11-11T00:44:49.421Z,87.69
2018-11-11T00:47:17.986Z,87.61
2018-11-11T00:49:47.001Z,87.71
2018-11-11T00:52:15.477Z,87.74
2018-11-11T00:54:43.957Z,87.97
2018-11-11T00:57:12.813Z,87.99
2018-11-11T00:59:41.250Z,87.75
2018-11-11T01:02:09.725Z,87.71
2018-11-11T01:04:38.543Z,87.94
2018-11-11T01:07:07.029Z,87.73
2018-11-11T01:09:35.518Z,87.65
2018-11-11T01:12:04.894Z,88.00
2018-11-11T01:14:33.346Z,87.99
2018-11-11T01:17:01.809Z,88.05
2018-11-11T01:19:30.963Z,87.97
2018-11-11T01:21:59.404Z,87.60
2018-11-11T01:24:28.105Z,87.80
2018-11-11T01:26:57.035Z,87.83
2018-11-11T01:29:25.496Z,87.83
2018-11-11T01:31:53.973Z,87.82
2018-11-11T01:34:23.218Z,87.93
2018-11-11T01:36:51.697Z,87.69
2018-11-11T01:39:20.199Z,87.70
2018-11-11T01:41:49.150Z,87.78
2018-11-11T01:44:18.591Z,87.67
2018-11-11T01:46:47.038Z,87.83
2018-11-11T01:49:15.745Z,87.93
2018-11-11T01:51:44.214Z,87.77
2018-11-11T01:54:12.678Z,87.92
2018-11-11T01:56:41.772Z,88.00
2018-11-11T01:59:10.247Z,87.79
2018-11-11T02:01:38.760Z,88.02
2018-11-11T02:04:07.592Z,87.83
2018-11-11T02:06:36.090Z,88.05
2018-11-11T02:09:07.353Z,87.85
2018-11-11T02:11:36.382Z,87.89
2018-11-11T02:14:04.919Z,87.76
2018-11-11T02:16:33.702Z,87.61
2018-11-11T02:19:02.298Z,88.00
2018-11-11T02:21:30.975Z,87.63
2018-11-11T02:23:59.501Z,87.80
2018-11-11T02:26:28.637Z,87.85
2018-11-11T02:28:57.066Z,87.79
2018-11-11T02:31:25.548Z,87.75
2018-11-11T02:33:54.574Z,87.88
2018-11-11T02:36:23.197Z,87.55
2018-11-11T02:38:51.821Z,87.75
2018-11-11T02:41:21.221Z,87.85
2018-11-11T02:43:49.670Z,87.91
2018-11-11T02:46:18.175Z,87.63
2018-11-11T02:48:47.581Z,87.72
2018-11-11T02:51:16.052Z,87.74
2018-11-11T02:53:44.749Z,87.84
2018-11-11T02:56:13.637Z,87.81
2018-11-11T02:58:42.096Z,87.89
2018-11-11T03:01:10.572Z,88.08
2018-11-11T03:03:39.813Z,87.86
2018-11-11T03:06:08.273Z,87.98
2018-11-11T03:08:37.057Z,87.62
2018-11-11T03:11:05.858Z,87.78
2018-11-11T03:13:34.305Z,87.77
2018-11-11T03:16:02.786Z,87.80
2018-11-11T03:18:31.807Z,87.46
2018-11-11T03:21:00.269Z,87.96
2018-11-11T03:23:28.762Z,87.77
2018-11-11T03:25:57.462Z,88.00
2018-11-11T03:28:26.149Z,87.73
2018-11-11T03:30:54.647Z,87.69
2018-11-11T03:33:23.372Z,87.55
2018-11-11T03:35:51.856Z,87.70
2018-11-11T03:38:20.333Z,87.71
2018-11-11T03:40:49.288Z,87.54
2018-11-11T03:43:17.733Z,87.80
2018-11-11T03:45:46.222Z,87.54
2018-11-11T03:48:15.261Z,87.66
2018-11-11T03:50:43.759Z,87.69
2018-11-11T03:53:12.258Z,87.77
2018-11-11T03:55:41.015Z,87.85
2018-11-11T03:58:09.579Z,88.01
2018-11-11T04:00:38.059Z,87.97
2018-11-11T04:03:06.926Z,87.94
2018-11-11T04:05:35.378Z,88.04
2018-11-11T04:08:03.891Z,88.00
2018-11-11T04:10:33.185Z,87.76
2018-11-11T04:13:01.507Z,87.78
2018-11-11T04:15:29.973Z,87.75
2018-11-11T04:17:59.093Z,88.00
2018-11-11T04:20:27.559Z,87.95
2018-11-11T04:22:56.073Z,88.05
2018-11-11T04:25:24.671Z,88.05
2018-11-11T04:27:53.117Z,87.83
2018-11-11T04:30:22.173Z,87.98
2018-11-11T04:32:50.821Z,87.95
2018-11-11T04:35:19.272Z,87.96
2018-11-11T04:37:47.745Z,88.00
2018-11-11T04:40:16.384Z,87.98
2018-11-11T04:42:44.848Z,88.08
2018-11-11T04:45:14.769Z,87.96
2018-11-11T04:47:45.031Z,88.03
2018-11-11T04:50:15.625Z,87.76
2018-11-11T04:52:44.928Z,88.06
2018-11-11T04:55:13.678Z,87.89
2018-11-11T04:57:42.725Z,87.99
2018-11-11T05:00:12.453Z,87.75
2018-11-11T05:02:41.821Z,87.75
2018-11-11T05:05:11.535Z,87.96
2018-11-11T05:07:40.489Z,88.04
2018-11-11T05:10:09.786Z,88.08
2018-11-11T05:12:38.287Z,87.99
2018-11-11T05:15:07.916Z,87.93
2018-11-11T05:17:36.703Z,88.03
2018-11-11T05:20:05.950Z,87.92
2018-11-11T05:22:34.878Z,87.90
2018-11-11T05:25:03.571Z,87.88
2018-11-11T05:27:32.018Z,87.88
2018-11-11T05:30:00.816Z,87.82
2018-11-11T05:32:29.522Z,87.95
2018-11-11T05:34:57.976Z,87.62
2018-11-11T05:37:26.961Z,87.74
2018-11-11T05:39:55.795Z,87.93
2018-11-11T05:42:24.281Z,87.80
2018-11-11T05:44:53.245Z,88.05
2018-11-11T05:47:21.770Z,88.02
2018-11-11T05:49:50.254Z,88.05
2018-11-11T05:52:18.817Z,87.73
2018-11-11T05:54:47.401Z,88.12
2018-11-11T05:57:15.849Z,88.01
2018-11-11T05:59:44.809Z,88.03
2018-11-11T06:02:13.365Z,87.93
2018-11-11T06:04:41.814Z,88.00
2018-11-11T06:07:10.478Z,88.17
2018-11-11T06:09:39.029Z,88.11
2018-11-11T06:12:07.497Z,88.22
2018-11-11T06:14:36.067Z,88.19
2018-11-11T06:17:04.846Z,88.29
2018-11-11T06:19:33.318Z,88.35
2018-11-11T06:22:02.217Z,88.45
2018-11-11T06:24:30.754Z,88.53
2018-11-11T06:26:59.253Z,88.39
2018-11-11T06:29:28.113Z,88.52
2018-11-11T06:31:56.660Z,88.70
2018-11-11T06:34:25.780Z,89.07
2018-11-11T06:36:54.717Z,88.94
2018-11-11T06:39:23.351Z,89.06
2018-11-11T06:41:51.877Z,89.05
2018-11-11T06:44:20.785Z,88.93
2018-11-11T06:46:49.677Z,89.29
2018-11-11T06:49:18.127Z,89.27
2018-11-11T06:51:46.878Z,89.22
2018-11-11T06:54:16.045Z,89.20
2018-11-11T06:56:44.501Z,89.30
2018-11-11T06:59:13.382Z,89.68
2018-11-11T07:01:42.114Z,89.88
2018-11-11T07:04:10.570Z,89.39
2018-11-11T07:06:39.570Z,89.67
2018-11-11T07:09:08.146Z,89.49
2018-11-11T07:11:36.601Z,89.52
2018-11-11T07:14:05.646Z,89.40
2018-11-11T07:16:34.245Z,89.80
2018-11-11T07:19:02.682Z,89.68
2018-11-11T07:21:31.668Z,89.75
2018-11-11T07:24:00.691Z,89.60
2018-11-11T07:26:29.101Z,89.66
2018-11-11T07:28:57.689Z,89.93
2018-11-11T07:31:26.375Z,89.73
2018-11-11T07:33:54.935Z,89.76
2018-11-11T07:36:23.674Z,89.79
2018-11-11T07:38:52.218Z,90.05
2018-11-11T07:41:20.707Z,89.93
2018-11-11T07:43:49.553Z,90.01
2018-11-11T07:46:18.498Z,89.87
2018-11-11T07:48:46.945Z,89.84
2018-11-11T07:51:16.003Z,90.04
2018-11-11T07:53:44.868Z,89.98
2018-11-11T07:56:13.342Z,90.09
2018-11-11T07:58:41.950Z,90.07
2018-11-11T08:01:10.862Z,90.43
2018-11-11T08:03:39.320Z,89.99
2018-11-11T08:06:08.114Z,89.87
2018-11-11T08:08:36.628Z,90.17
2018-11-11T08:11:16.497Z,90.13
2018-11-11T08:13:45.103Z,90.09
2018-11-11T08:16:13.556Z,90.08
2018-11-11T08:18:42.219Z,89.87
2018-11-11T08:21:11.097Z,90.26
2018-11-11T08:23:39.549Z,90.03
2018-11-11T08:26:08.130Z,90.35
2018-11-11T08:28:36.667Z,90.18
2018-11-11T08:31:05.281Z,90.27
2018-11-11T08:33:33.895Z,90.17
2018-11-11T08:36:02.602Z,90.19
2018-11-11T08:38:31.173Z,90.14
2018-11-11T08:41:00.227Z,90.27
2018-11-11T08:43:28.993Z,90.25
2018-11-11T08:45:57.441Z,90.28
2018-11-11T08:48:26.218Z,90.09
2018-11-11T08:50:55.099Z,90.11
2018-11-11T08:53:23.537Z,90.05
2018-11-11T08:55:52.158Z,90.00
2018-11-11T08:58:21.173Z,90.08
2018-11-11T09:00:49.725Z,90.03
2018-11-11T09:03:18.599Z,89.95
2018-11-11T09:05:47.185Z,89.97
2018-11-11T09:08:15.626Z,89.99
2018-11-11T09:10:44.588Z,89.89
2018-11-11T09:13:13.245Z,89.91
2018-11-11T09:15:41.881Z,89.86
2018-11-11T09:18:10.654Z,89.95
2018-11-11T09:20:39.544Z,89.94
2018-11-11T09:23:08.005Z,89.81
2018-11-11T09:25:36.757Z,89.80
2018-11-11T09:28:06.041Z,89.61
2018-11-11T09:30:34.567Z,89.65
2018-11-11T09:33:03.390Z,89.57
2018-11-11T09:35:32.282Z,89.46
2018-11-11T09:38:00.729Z,89.42
2018-11-11T09:40:29.742Z,89.56
2018-11-11T09:42:58.639Z,89.35
2018-11-11T09:45:27.097Z,89.17
2018-11-11T09:47:55.695Z,89.30
2018-11-11T09:50:24.378Z,89.34
2018-11-11T09:52:52.856Z,89.20
2018-11-11T09:55:21.458Z,89.11
2018-11-11T09:57:50.037Z,89.10
2018-11-11T10:00:19.966Z,88.90
2018-11-11T10:03:03.998Z,89.18
2018-11-11T10:07:39.233Z,88.89
2018-11-11T10:10:12.087Z,88.50
2018-11-11T10:12:44.939Z,88.73
2018-11-11T10:15:32.130Z,88.60
2018-11-11T10:18:05.757Z,88.49
2018-11-11T10:20:41.552Z,88.68
2018-11-11T10:23:44.045Z,88.58
2018-11-11T10:26:26.598Z,88.45
2018-11-11T10:29:05.704Z,88.36
2018-11-11T10:31:41.961Z,88.56
2018-11-11T10:34:46.142Z,88.50
2018-11-11T10:37:17.446Z,88.26
2018-11-11T10:39:54.823Z,88.18
2018-11-11T10:42:48.168Z,88.04
2018-11-11T10:45:21.793Z,87.92
2018-11-11T10:47:59.820Z,88.06
2018-11-11T10:50:45.505Z,88.22
2018-11-11T10:53:14.666Z,88.10
2018-11-11T10:55:43.106Z,87.94
2018-11-11T10:58:11.560Z,88.09
2018-11-11T11:00:45.405Z,87.85
2018-11-11T11:03:19.258Z,87.59
2018-11-11T11:05:47.949Z,87.49
2018-11-11T11:08:16.368Z,87.53
2018-11-11T11:10:44.851Z,87.75
2018-11-11T11:13:14.327Z,87.37
2018-11-11T11:15:42.779Z,87.27
2018-11-11T11:18:11.260Z,86.91
2018-11-11T11:20:39.957Z,86.86
2018-11-11T11:23:08.532Z,86.74
2018-11-11T11:25:37.027Z,86.79
2018-11-11T11:28:06.093Z,86.50
2018-11-11T11:30:34.552Z,86.65
2018-11-11T11:33:03.021Z,86.77
2018-11-11T11:35:32.464Z,86.53
2018-11-11T11:38:01.000Z,86.30
2018-11-11T11:40:29.668Z,86.79
2018-11-11T11:42:58.822Z,86.54
2018-11-11T11:45:27.326Z,86.60
2018-11-11T11:47:55.777Z,86.68
2018-11-11T11:50:24.932Z,86.74
2018-11-11T11:52:53.662Z,86.51
2018-11-11T11:55:22.177Z,86.66
2018-11-11T11:58:02.200Z,86.64
2018-11-11T12:00:30.653Z,86.56
2018-11-11T12:02:59.199Z,86.56
2018-11-11T12:05:27.968Z,86.51
2018-11-11T12:07:56.638Z,86.71
2018-11-11T12:10:25.196Z,86.44
2018-11-11T12:12:54.795Z,86.56
2018-11-11T12:15:23.259Z,86.74
2018-11-11T12:17:51.715Z,86.78
2018-11-11T12:20:20.616Z,86.37
2018-11-11T12:22:49.068Z,86.50
2018-11-11T12:25:17.533Z,86.81
2018-11-11T12:27:46.528Z,86.61
2018-11-11T12:30:15.029Z,86.62
2018-11-11T12:32:43.544Z,86.90
2018-11-11T12:35:12.985Z,86.71
2018-11-11T12:37:41.385Z,86.85
2018-11-11T12:40:11.221Z,86.97
2018-11-11T12:42:40.125Z,87.19
2018-11-11T12:45:09.917Z,86.87
2018-11-11T12:47:38.397Z,87.14
2018-11-11T12:50:08.147Z,87.15
2018-11-11T12:52:36.702Z,87.18
2018-11-11T12:55:05.275Z,87.29
2018-11-11T12:57:34.438Z,87.54
2018-11-11T13:00:02.925Z,87.21
2018-11-11T13:02:31.397Z,87.48
2018-11-11T13:05:00.110Z,87.53
2018-11-11T13:07:29.049Z,87.92
2018-11-11T13:09:57.507Z,87.64
2018-11-11T13:12:26.714Z,87.96
2018-11-11T13:14:55.089Z,87.99
2018-11-11T13:17:23.546Z,87.97
2018-11-11T13:19:52.249Z,88.01
2018-11-11T13:22:21.017Z,88.13
2018-11-11T13:24:49.477Z,88.50
2018-11-11T13:27:18.284Z,88.45
2018-11-11T13:29:46.850Z,88.26
2018-11-11T13:32:15.305Z,88.23
2018-11-11T13:34:44.728Z,87.98
2018-11-11T13:37:13.261Z,88.06
2018-11-11T13:39:41.713Z,88.09
2018-11-11T13:42:10.372Z,87.91
2018-11-11T13:44:38.850Z,87.98
2018-11-11T13:47:07.801Z,87.82
2018-11-11T13:49:36.605Z,87.89
2018-11-11T13:52:05.421Z,87.62
2018-11-11T13:54:33.850Z,87.60
2018-11-11T13:57:02.899Z,87.96
2018-11-11T13:59:31.406Z,87.54
2018-11-11T14:01:59.857Z,87.52
2018-11-11T14:04:29.061Z,87.79
2018-11-11T14:06:57.559Z,87.75
2018-11-11T14:09:26.155Z,87.84
2018-11-11T14:11:54.821Z,87.69
2018-11-11T14:14:23.355Z,87.95
2018-11-11T14:16:51.798Z,87.94
2018-11-11T14:19:21.336Z,88.04
2018-11-11T14:21:49.671Z,87.75
2018-11-11T14:24:18.149Z,87.87
2018-11-11T14:26:47.305Z,87.92
2018-11-11T14:29:15.625Z,88.00
2018-11-11T14:31:44.317Z,87.98
2018-11-11T14:34:13.469Z,87.99
2018-11-11T14:36:41.988Z,87.80
2018-11-11T14:39:12.733Z,88.06
2018-11-11T14:41:42.546Z,88.22
2018-11-11T14:44:11.412Z,88.07
2018-11-11T14:46:40.613Z,87.96
2018-11-11T14:49:10.117Z,87.87
2018-11-11T14:51:38.653Z,88.16
2018-11-11T14:54:07.337Z,88.10
2018-11-11T14:56:36.306Z,88.33
2018-11-11T14:59:05.108Z,88.12
2018-11-11T15:01:33.665Z,88.30
2018-11-11T15:04:02.617Z,88.40
2018-11-11T15:06:31.333Z,88.33
2018-11-11T15:08:59.809Z,88.42
2018-11-11T15:11:28.991Z,88.29
2018-11-11T15:13:57.458Z,88.17
2018-11-11T15:16:25.898Z,88.19
2018-11-11T15:18:55.064Z,88.33
2018-11-11T15:21:23.529Z,88.33
2018-11-11T15:23:52.156Z,88.35
2018-11-11T15:26:21.094Z,88.36
2018-11-11T15:28:49.550Z,88.56
2018-11-11T15:31:18.463Z,88.55
2018-11-11T15:33:47.358Z,88.48
2018-11-11T15:36:15.834Z,88.38
2018-11-11T15:38:44.322Z,88.31
2018-11-11T15:41:13.265Z,88.42
2018-11-11T15:43:41.696Z,88.53
2018-11-11T15:46:10.530Z,88.74
2018-11-11T15:48:39.320Z,88.46
2018-11-11T15:51:08.098Z,88.57
2018-11-11T15:53:36.601Z,88.53
2018-11-11T15:56:05.951Z,88.83
2018-11-11T15:58:34.562Z,88.71
2018-11-11T16:01:03.052Z,88.44
2018-11-11T16:03:31.706Z,88.43
2018-11-11T16:06:00.470Z,88.80
2018-11-11T16:08:28.913Z,88.74
2018-11-11T16:10:58.102Z,88.80
2018-11-11T16:13:26.571Z,88.62
2018-11-11T16:15:55.042Z,88.66
2018-11-11T16:18:23.935Z,88.72
2018-11-11T16:20:52.393Z,88.46
2018-11-11T16:23:20.889Z,88.62
2018-11-11T16:25:50.161Z,88.65
2018-11-11T16:28:18.697Z,88.61
2018-11-11T16:30:47.485Z,88.62
2018-11-11T16:33:16.827Z,88.71
2018-11-11T16:35:45.355Z,88.90
2018-11-11T16:38:13.793Z,88.84
2018-11-11T16:40:42.837Z,88.51
2018-11-11T16:43:11.255Z,88.55
2018-11-11T16:45:39.728Z,88.67
2018-11-11T16:48:08.959Z,88.67
2018-11-11T16:50:38.022Z,88.71
2018-11-11T16:53:08.497Z,88.57
2018-11-11T16:55:37.773Z,88.66
2018-11-11T16:58:06.313Z,88.63
2018-11-11T17:00:36.437Z,88.70
2018-11-11T17:03:05.870Z,88.46
2018-11-11T17:05:35.731Z,88.89
2018-11-11T17:08:04.320Z,88.63
2018-11-11T17:10:34.500Z,88.56
2018-11-11T17:13:04.954Z,88.75
2018-11-11T17:15:33.957Z,88.85
2018-11-11T17:18:02.613Z,88.84
2018-11-11T17:20:31.826Z,88.84
2018-11-11T17:23:02.032Z,88.68
2018-11-11T17:25:31.198Z,88.67
2018-11-11T17:27:59.984Z,88.67
2018-11-11T17:30:35.648Z,88.62
2018-11-11T17:33:04.716Z,88.43
2018-11-11T17:35:33.162Z,88.60
2018-11-11T17:38:02.438Z,88.21
2018-11-11T17:40:31.489Z,88.48
2018-11-11T17:43:01.202Z,88.31
2018-11-11T17:45:30.236Z,88.22
2018-11-11T17:47:58.869Z,88.44
2018-11-11T17:50:28.874Z,88.47
2018-11-11T17:52:58.165Z,88.23
2018-11-11T17:55:27.849Z,88.56
2018-11-11T17:57:56.287Z,88.44
2018-11-11T18:00:26.156Z,88.17
2018-11-11T18:02:55.017Z,88.32
2018-11-11T18:05:24.932Z,88.32
2018-11-11T18:07:53.903Z,88.14
2018-11-11T18:10:23.384Z,88.02
2018-11-11T18:12:51.841Z,88.03
2018-11-11T18:15:22.905Z,88.14
2018-11-11T18:17:51.391Z,88.17
2018-11-11T18:20:21.386Z,88.20
2018-11-11T18:22:51.089Z,88.20
2018-11-11T18:25:19.866Z,88.24
2018-11-11T18:27:48.386Z,88.18
2018-11-11T18:30:20.989Z,88.56
2018-11-11T18:32:49.806Z,88.37
2018-11-11T18:35:19.007Z,88.39
2018-11-11T18:37:48.035Z,88.38
2018-11-11T18:40:18.734Z,88.39
2018-11-11T18:42:47.244Z,88.50
2018-11-11T18:45:20.178Z,88.66
2018-11-11T18:47:49.838Z,88.68
2018-11-11T18:50:20.347Z,88.63
2018-11-11T18:52:48.984Z,88.75
2018-11-11T18:55:17.529Z,88.77
2018-11-11T18:57:46.605Z,88.69
2018-11-11T19:00:23.039Z,88.75
2018-11-11T19:02:52.235Z,88.77
2018-11-11T19:05:21.551Z,88.82
2018-11-11T19:07:50.930Z,88.88
2018-11-11T19:10:23.493Z,88.62
2018-11-11T19:12:53.663Z,88.48
2018-11-11T19:15:22.545Z,88.76
2018-11-11T19:17:51.850Z,88.66
2018-11-11T19:20:21.835Z,88.88
2018-11-11T19:22:50.404Z,88.79
2018-11-11T19:25:20.987Z,88.73
2018-11-11T19:27:50.948Z,88.60
2018-11-11T19:30:20.350Z,88.87
2018-11-11T19:32:49.484Z,88.73
2018-11-11T19:35:18.385Z,88.79
2018-11-11T19:37:48.125Z,88.75
2018-11-11T19:40:17.984Z,88.66
2018-11-11T19:42:46.828Z,88.52
2018-11-11T19:45:16.914Z,88.56
2018-11-11T19:47:45.618Z,88.55
2018-11-11T19:50:16.737Z,88.61
2018-11-11T19:55:27.899Z,88.54
2018-11-11T19:57:57.027Z,88.46
2018-11-11T20:00:26.642Z,88.34
2018-11-11T20:02:56.233Z,87.98
2018-11-11T20:05:25.266Z,87.90
2018-11-11T20:07:55.253Z,87.95
2018-11-11T20:10:25.027Z,87.75
2018-11-11T20:12:53.789Z,87.48
2018-11-11T20:15:23.841Z,87.47
2018-11-11T20:17:52.476Z,87.67
2018-11-11T20:20:22.264Z,87.24
2018-11-11T20:22:50.877Z,87.49
2018-11-11T20:25:20.409Z,87.45
2018-11-11T20:27:50.487Z,87.59
2018-11-11T20:30:21.495Z,87.76
2018-11-11T20:32:50.301Z,87.62
2018-11-11T20:35:20.254Z,87.96
2018-11-11T20:37:48.922Z,87.77
2018-11-11T20:40:18.814Z,87.56
2018-11-11T20:42:47.611Z,87.77
2018-11-11T20:45:17.456Z,87.99
2018-11-11T20:47:46.602Z,87.95
2018-11-11T20:50:17.293Z,87.85
2018-11-11T20:52:46.837Z,87.78
2018-11-11T20:55:15.877Z,87.86
2018-11-11T20:57:44.460Z,87.97
2018-11-11T21:00:18.491Z,87.94
2018-11-11T21:02:47.402Z,88.15
2018-11-11T21:05:17.410Z,88.16
2018-11-11T21:07:46.309Z,88.11
2018-11-11T21:10:19.497Z,88.16
2018-11-11T21:12:48.182Z,88.29
2018-11-11T21:15:17.959Z,88.18
2018-11-11T21:17:47.139Z,88.66
2018-11-11T21:20:17.160Z,88.72
2018-11-11T21:22:45.638Z,88.61
2018-11-11T21:25:14.578Z,88.69
2018-11-11T21:27:44.345Z,88.78
2018-11-11T21:30:15.763Z,88.88
2018-11-11T21:32:44.588Z,88.86
2018-11-11T21:35:13.786Z,88.95
2018-11-11T21:37:42.880Z,88.75
2018-11-11T21:40:15.016Z,88.85
2018-11-11T21:42:44.963Z,88.57
2018-11-11T21:45:15.524Z,88.85
2018-11-11T21:47:44.521Z,89.03
2018-11-11T21:50:18.482Z,89.10
2018-11-11T21:53:50.411Z,88.93
2018-11-11T21:56:19.251Z,88.70
2018-11-11T21:58:47.767Z,88.88
2018-11-11T22:01:16.813Z,88.75
2018-11-11T22:03:45.453Z,89.14
2018-11-11T22:06:14.152Z,89.00
2018-11-11T22:08:43.197Z,89.12
2018-11-11T22:11:11.847Z,89.24
2018-11-11T22:13:40.584Z,88.94
2018-11-11T22:16:09.685Z,88.99
2018-11-11T22:18:38.919Z,89.07
2018-11-11T22:21:07.631Z,89.27
2018-11-11T22:23:37.197Z,89.40
2018-11-11T22:26:06.023Z,89.02
2018-11-11T22:28:34.512Z,89.60
2018-11-11T22:31:03.924Z,89.23
2018-11-11T22:33:32.684Z,89.32
2018-11-11T22:36:01.121Z,88.99
2018-11-11T22:38:30.106Z,89.31
2018-11-11T22:41:01.426Z,89.30
2018-11-11T22:43:29.918Z,89.16
2018-11-11T22:45:58.574Z,89.34
2018-11-11T22:48:27.058Z,89.23
2018-11-11T22:50:55.561Z,89.22
2018-11-11T22:53:24.697Z,89.11
2018-11-11T22:55:53.161Z,89.28
2018-11-11T22:58:21.718Z,89.32
2018-11-11T23:00:55.552Z,89.05
2018-11-11T23:03:24.461Z,89.36
2018-11-11T23:05:52.911Z,89.55
2018-11-11T23:08:21.465Z,89.27
2018-11-11T23:10:50.161Z,89.76
2018-11-11T23:13:18.590Z,89.55
2018-11-11T23:15:47.174Z,89.55
2018-11-11T23:18:15.745Z,89.71
2018-11-11T23:20:44.187Z,89.81
2018-11-11T23:23:12.823Z,89.65
2018-11-11T23:25:41.465Z,89.65
2018-11-11T23:28:09.947Z,89.53
2018-11-11T23:30:39.011Z,89.88
2018-11-11T23:33:07.556Z,89.99
2018-11-11T23:35:36.179Z,89.76
2018-11-11T23:38:05.329Z,89.89
2018-11-11T23:40:33.933Z,89.93
2018-11-11T23:43:02.469Z,89.92
2018-11-11T23:45:31.376Z,89.81
2018-11-11T23:48:00.139Z,90.14
2018-11-11T23:50:28.570Z,90.08
2018-11-11T23:52:57.384Z,90.29
2018-11-11T23:55:26.252Z,89.85
2018-11-11T23:57:54.693Z,90.21
